Time;durP1;ratioP1;P1;durP2;ratioP2;P2;SDS_P1;SDS_P2;PMS_P1;PMS_P2;Temp;Humidity;BMP_temperature;BMP_pressure;BME280_temperature;BME280_humidity;BME280_pressure;Samples;Min_cycle;Max_cycle;Signal;HPM_P1;HPM_P2
2021/12/03 00:00:44;;;;;;;139.68;32.08;;;;;;;;;;5011132;28;20540;-68
2021/12/03 00:03:10;;;;;;;138.68;32.40;;;;;;;;;;5016233;28;20029;-68
2021/12/03 00:05:36;;;;;;;144.00;35.22;;;;;;;;;;5017203;28;20048;-68
2021/12/03 00:08:02;;;;;;;129.18;34.42;;;;;;;;;;5024339;28;20506;-68
2021/12/03 00:10:27;;;;;;;126.78;36.45;;;;;;;;;;5018105;28;20057;-68
2021/12/03 00:12:55;;;;;;;119.90;35.80;;;;;;;;;;5027442;28;20049;-69
2021/12/03 00:15:23;;;;;;;99.88;33.35;;;;;;;;;;5027455;28;20481;-68
2021/12/03 00:17:50;;;;;;;109.53;35.17;;;;;;;;;;5020898;28;20037;-69
2021/12/03 00:20:16;;;;;;;112.25;34.15;;;;;;;;;;5027785;28;20034;-69
2021/12/03 00:22:45;;;;;;;92.05;33.35;;;;;;;;;;5010799;28;20096;-68
2021/12/03 00:25:12;;;;;;;93.32;32.00;;;;;;;;;;5019787;28;20041;-67
2021/12/03 00:27:38;;;;;;;93.70;32.60;;;;;;;;;;5026106;28;20061;-68
2021/12/03 00:30:06;;;;;;;95.20;33.08;;;;;;;;;;5013982;28;20087;-69
2021/12/03 00:32:32;;;;;;;80.80;28.77;;;;;;;;;;5027714;28;20355;-67
2021/12/03 00:34:57;;;;;;;84.32;30.45;;;;;;;;;;5029587;28;20022;-67
2021/12/03 00:37:23;;;;;;;87.00;31.48;;;;;;;;;;5026332;28;20029;-68
2021/12/03 00:39:49;;;;;;;91.95;32.22;;;;;;;;;;5037240;28;20403;-67
2021/12/03 00:42:17;;;;;;;86.93;33.08;;;;;;;;;;5026181;28;20061;-67
2021/12/03 00:44:45;;;;;;;79.28;30.38;;;;;;;;;;5033571;28;20533;-67
2021/12/03 00:47:11;;;;;;;76.90;29.42;;;;;;;;;;5026012;28;20080;-66
2021/12/03 00:49:36;;;;;;;82.30;31.65;;;;;;;;;;5031307;28;20033;-66
2021/12/03 00:52:02;;;;;;;80.75;30.45;;;;;;;;;;5022118;28;20041;-66
2021/12/03 00:54:27;;;;;;;79.35;32.95;;;;;;;;;;5030464;28;20030;-65
2021/12/03 00:56:53;;;;;;;79.40;31.85;;;;;;;;;;5017805;28;20044;-67
2021/12/03 00:59:18;;;;;;;75.55;32.15;;;;;;;;;;5034595;28;20386;-67
2021/12/03 01:01:44;;;;;;;81.22;31.98;;;;;;;;;;5029118;28;20044;-67
2021/12/03 01:04:09;;;;;;;81.28;32.78;;;;;;;;;;5029776;28;20061;-66
2021/12/03 01:09:13;;;;;;;75.00;32.03;;;;;;;;;;5365689;22;20029;-68
2021/12/03 01:11:38;;;;;;;77.75;31.80;;;;;;;;;;4993884;28;20085;-66
2021/12/03 01:14:04;;;;;;;68.65;31.52;;;;;;;;;;4983829;28;20113;-66
2021/12/03 01:16:30;;;;;;;75.07;31.08;;;;;;;;;;4986155;28;20034;-67
2021/12/03 01:18:57;;;;;;;72.13;29.83;;;;;;;;;;4994027;28;20089;-66
2021/12/03 01:21:23;;;;;;;67.53;31.55;;;;;;;;;;4977575;28;20488;-68
2021/12/03 01:23:49;;;;;;;71.97;31.27;;;;;;;;;;4994096;28;20038;-67
2021/12/03 01:26:16;;;;;;;68.63;30.95;;;;;;;;;;4984282;28;20030;-66
2021/12/03 01:28:42;;;;;;;62.53;28.67;;;;;;;;;;4992598;28;20116;-66
2021/12/03 01:31:08;;;;;;;62.78;27.25;;;;;;;;;;4991117;28;20053;-66
2021/12/03 01:33:33;;;;;;;63.10;30.08;;;;;;;;;;4975453;28;20460;-66
2021/12/03 01:36:00;;;;;;;57.53;27.23;;;;;;;;;;4992196;28;20044;-65
2021/12/03 01:38:25;;;;;;;54.70;27.90;;;;;;;;;;4993622;28;20056;-66
2021/12/03 01:40:51;;;;;;;45.53;22.73;;;;;;;;;;4992535;28;20062;-65
2021/12/03 01:43:24;;;;;;;40.75;19.58;;;;;;;;;;4981773;28;20050;-68
2021/12/03 01:45:59;;;;;;;51.05;24.75;;;;;;;;;;4990883;28;20514;-67
2021/12/03 01:48:25;;;;;;;49.22;24.25;;;;;;;;;;4984956;28;20041;-67
2021/12/03 01:50:52;;;;;;;56.97;29.50;;;;;;;;;;4985908;28;20057;-66
2021/12/03 01:53:24;;;;;;;41.45;23.15;;;;;;;;;;4987286;28;20026;-66
2021/12/03 01:55:52;;;;;;;58.70;29.05;;;;;;;;;;4993094;28;20026;-66
2021/12/03 01:58:18;;;;;;;58.38;30.80;;;;;;;;;;4978242;28;20042;-67
2021/12/03 02:00:48;;;;;;;55.67;30.33;;;;;;;;;;4965033;28;20027;-67
2021/12/03 02:03:15;;;;;;;47.07;23.43;;;;;;;;;;4980335;28;20030;-67
2021/12/03 02:05:42;;;;;;;42.60;21.08;;;;;;;;;;4982953;28;20022;-66
2021/12/03 02:08:07;;;;;;;39.42;19.25;;;;;;;;;;4985752;28;20041;-66
2021/12/03 02:10:34;;;;;;;54.30;27.92;;;;;;;;;;4983217;28;20058;-66
2021/12/03 02:12:59;;;;;;;59.83;29.30;;;;;;;;;;4990584;28;20035;-67
2021/12/03 02:15:25;;;;;;;68.53;30.30;;;;;;;;;;4978502;28;20042;-68
2021/12/03 02:17:51;;;;;;;65.53;32.00;;;;;;;;;;4975922;28;20458;-67
2021/12/03 02:20:17;;;;;;;63.97;29.75;;;;;;;;;;4975725;28;20030;-68
2021/12/03 02:22:42;;;;;;;72.80;31.05;;;;;;;;;;4985307;28;20503;-68
2021/12/03 02:25:11;;;;;;;66.07;29.77;;;;;;;;;;4978088;28;20050;-68
2021/12/03 02:27:37;;;;;;;73.82;30.30;;;;;;;;;;4991726;28;20483;-68
2021/12/03 02:30:05;;;;;;;65.00;29.38;;;;;;;;;;4989264;28;20113;-68
2021/12/03 02:32:31;;;;;;;67.60;30.38;;;;;;;;;;4983240;28;20097;-68
2021/12/03 02:34:57;;;;;;;69.60;30.75;;;;;;;;;;4992125;28;20065;-68
2021/12/03 02:37:22;;;;;;;72.45;31.08;;;;;;;;;;4991428;28;20116;-69
2021/12/03 02:39:48;;;;;;;75.90;32.65;;;;;;;;;;4991031;28;20033;-69
2021/12/03 02:42:13;;;;;;;71.75;31.40;;;;;;;;;;4993904;28;20030;-69
2021/12/03 02:44:39;;;;;;;72.75;32.33;;;;;;;;;;4991309;28;20426;-70
2021/12/03 02:47:04;;;;;;;79.53;34.08;;;;;;;;;;4992966;28;20101;-69
2021/12/03 02:49:35;;;;;;;80.30;34.35;;;;;;;;;;4990543;28;20034;-69
2021/12/03 02:52:00;;;;;;;75.85;33.05;;;;;;;;;;4981226;28;20046;-69
2021/12/03 02:54:26;;;;;;;72.93;31.50;;;;;;;;;;4992453;28;20034;-69
2021/12/03 02:56:51;;;;;;;74.93;32.47;;;;;;;;;;4994105;28;20026;-69
2021/12/03 02:59:17;;;;;;;76.45;30.67;;;;;;;;;;4993264;28;20398;-69
2021/12/03 03:01:44;;;;;;;78.85;33.53;;;;;;;;;;4973461;28;20042;-70
2021/12/03 03:04:09;;;;;;;77.18;32.17;;;;;;;;;;4991221;28;20031;-70
2021/12/03 03:06:35;;;;;;;84.82;31.63;;;;;;;;;;4978657;28;20415;-69
2021/12/03 03:09:03;;;;;;;89.03;33.33;;;;;;;;;;4975002;28;20475;-68
2021/12/03 03:11:29;;;;;;;82.72;32.92;;;;;;;;;;4992420;28;20101;-70
2021/12/03 03:13:55;;;;;;;76.30;30.77;;;;;;;;;;4991932;28;20042;-70
2021/12/03 03:16:20;;;;;;;82.07;31.98;;;;;;;;;;4975460;28;20318;-69
2021/12/03 03:18:46;;;;;;;87.05;31.88;;;;;;;;;;4992492;28;20081;-68
2021/12/03 03:21:11;;;;;;;55.40;23.80;;;;;;;;;;4992319;28;20038;-69
2021/12/03 03:23:37;;;;;;;50.58;20.55;;;;;;;;;;4991908;28;20030;-70
2021/12/03 03:26:03;;;;;;;57.03;24.40;;;;;;;;;;4992072;28;20034;-70
2021/12/03 03:28:29;;;;;;;38.95;18.80;;;;;;;;;;4992355;28;20034;-68
2021/12/03 03:30:57;;;;;;;50.47;20.50;;;;;;;;;;4992914;28;20026;-69
2021/12/03 03:33:23;;;;;;;37.90;18.33;;;;;;;;;;4992746;28;20034;-69
2021/12/03 03:35:48;;;;;;;58.45;19.60;;;;;;;;;;4991507;28;20026;-69
2021/12/03 03:38:16;;;;;;;78.97;28.42;;;;;;;;;;4992565;28;20089;-68
2021/12/03 03:40:43;;;;;;;54.58;23.38;;;;;;;;;;4991894;28;20042;-67
2021/12/03 03:43:09;;;;;;;72.68;22.60;;;;;;;;;;4974993;28;20096;-68
2021/12/03 03:45:36;;;;;;;74.97;25.83;;;;;;;;;;4988590;28;20391;-68
2021/12/03 03:48:02;;;;;;;58.38;21.27;;;;;;;;;;4993883;28;20046;-68
2021/12/03 03:50:28;;;;;;;93.80;29.00;;;;;;;;;;4973677;28;20035;-68
2021/12/03 03:52:55;;;;;;;81.30;24.50;;;;;;;;;;4987190;28;20034;-68
2021/12/03 03:55:23;;;;;;;60.25;19.67;;;;;;;;;;4988072;28;20117;-68
2021/12/03 03:57:50;;;;;;;81.05;23.83;;;;;;;;;;4988461;28;20258;-68
2021/12/03 04:00:19;;;;;;;55.13;20.05;;;;;;;;;;4988257;28;20058;-68
2021/12/03 04:02:45;;;;;;;64.00;20.83;;;;;;;;;;4976328;28;20114;-68
2021/12/03 04:05:11;;;;;;;67.53;21.27;;;;;;;;;;4972234;28;20125;-68
2021/12/03 04:07:38;;;;;;;67.57;20.38;;;;;;;;;;4989387;28;20026;-68
2021/12/03 04:10:05;;;;;;;95.35;28.42;;;;;;;;;;4973649;28;20046;-68
2021/12/03 04:12:30;;;;;;;80.00;23.42;;;;;;;;;;4990685;28;20034;-68
2021/12/03 04:14:56;;;;;;;82.28;24.55;;;;;;;;;;4986961;28;20045;-67
2021/12/03 04:17:21;;;;;;;51.00;17.75;;;;;;;;;;4991761;28;20455;-68
2021/12/03 04:19:47;;;;;;;83.22;26.40;;;;;;;;;;4972106;28;20030;-67
2021/12/03 04:22:15;;;;;;;70.25;23.48;;;;;;;;;;4990651;28;20368;-68
2021/12/03 04:24:42;;;;;;;90.53;26.95;;;;;;;;;;4972072;28;20390;-68
2021/12/03 04:27:07;;;;;;;83.38;24.83;;;;;;;;;;4991956;28;20039;-68
2021/12/03 04:29:33;;;;;;;89.55;27.08;;;;;;;;;;4990102;28;20038;-67
2021/12/03 04:31:59;;;;;;;77.38;22.90;;;;;;;;;;4991150;28;20053;-67
2021/12/03 04:34:24;;;;;;;77.20;24.73;;;;;;;;;;4973588;28;20468;-67
2021/12/03 04:36:50;;;;;;;59.72;21.13;;;;;;;;;;4985334;28;20030;-67
2021/12/03 04:39:15;;;;;;;84.13;26.13;;;;;;;;;;4991724;28;20039;-67
2021/12/03 04:41:40;;;;;;;77.18;21.50;;;;;;;;;;4990137;28;20042;-67
2021/12/03 04:44:06;;;;;;;86.95;25.30;;;;;;;;;;4990769;28;20026;-68
2021/12/03 04:46:32;;;;;;;33.80;15.25;;;;;;;;;;4984808;28;20027;-67
2021/12/03 04:48:57;;;;;;;56.75;17.70;;;;;;;;;;4988081;28;20030;-67
2021/12/03 04:51:22;;;;;;;86.25;25.35;;;;;;;;;;4990317;28;20121;-67
2021/12/03 04:53:48;;;;;;;73.32;22.00;;;;;;;;;;4974304;28;20039;-67
2021/12/03 04:56:14;;;;;;;62.33;19.35;;;;;;;;;;4986423;28;20037;-67
2021/12/03 04:58:39;;;;;;;83.47;24.98;;;;;;;;;;4988170;28;20038;-68
2021/12/03 05:01:04;;;;;;;62.42;19.58;;;;;;;;;;4973383;28;20361;-67
2021/12/03 05:03:30;;;;;;;78.03;22.13;;;;;;;;;;4972671;28;20085;-67
2021/12/03 05:06:00;;;;;;;59.78;18.23;;;;;;;;;;4988098;28;20030;-68
2021/12/03 05:08:28;;;;;;;69.18;23.13;;;;;;;;;;4989413;28;20038;-67
2021/12/03 05:10:55;;;;;;;76.80;21.88;;;;;;;;;;4988594;28;20069;-68
2021/12/03 05:13:25;;;;;;;75.05;23.27;;;;;;;;;;4979226;28;20031;-67
2021/12/03 05:15:51;;;;;;;79.40;21.63;;;;;;;;;;4988795;28;20039;-67
2021/12/03 05:18:19;;;;;;;46.83;18.17;;;;;;;;;;4990392;28;20105;-67
2021/12/03 05:20:47;;;;;;;83.85;27.00;;;;;;;;;;4990625;28;20440;-67
2021/12/03 05:23:13;;;;;;;75.57;23.98;;;;;;;;;;4988320;28;20037;-67
2021/12/03 05:25:39;;;;;;;63.65;21.38;;;;;;;;;;4992906;28;20404;-67
2021/12/03 05:28:06;;;;;;;68.25;22.80;;;;;;;;;;4993123;28;20060;-67
2021/12/03 05:30:32;;;;;;;47.65;16.45;;;;;;;;;;4990080;28;20049;-67
2021/12/03 05:32:58;;;;;;;69.72;20.88;;;;;;;;;;4991678;28;20033;-66
2021/12/03 05:35:24;;;;;;;73.43;23.30;;;;;;;;;;4993872;28;20371;-67
2021/12/03 05:37:50;;;;;;;51.00;17.88;;;;;;;;;;4993956;28;20053;-67
2021/12/03 05:40:17;;;;;;;60.28;20.70;;;;;;;;;;4993671;28;20460;-67
2021/12/03 05:42:44;;;;;;;44.50;16.67;;;;;;;;;;4992996;28;20030;-67
2021/12/03 05:45:12;;;;;;;41.00;15.05;;;;;;;;;;4977995;28;20045;-67
2021/12/03 05:47:37;;;;;;;42.92;16.80;;;;;;;;;;4994450;28;20109;-68
2021/12/03 05:50:05;;;;;;;45.00;18.63;;;;;;;;;;4977423;28;20121;-67
2021/12/03 05:52:31;;;;;;;36.45;18.38;;;;;;;;;;4994357;28;20034;-66
2021/12/03 05:54:56;;;;;;;42.70;16.50;;;;;;;;;;4992817;28;20041;-67
2021/12/03 05:57:22;;;;;;;48.63;17.77;;;;;;;;;;4991430;28;20077;-70
2021/12/03 05:59:47;;;;;;;51.63;19.38;;;;;;;;;;4991176;28;20471;-69
2021/12/03 06:02:13;;;;;;;41.70;17.25;;;;;;;;;;4994373;28;20073;-74
2021/12/03 06:04:38;;;;;;;52.55;20.00;;;;;;;;;;4992432;28;20061;-74
2021/12/03 06:07:04;;;;;;;47.78;18.92;;;;;;;;;;4976747;28;20448;-74
2021/12/03 06:09:30;;;;;;;43.35;16.35;;;;;;;;;;4994553;28;20027;-77
2021/12/03 06:11:56;;;;;;;31.52;12.43;;;;;;;;;;4993773;28;20318;-77
2021/12/03 06:14:21;;;;;;;40.00;16.85;;;;;;;;;;4993643;28;20479;-78
2021/12/03 06:16:47;;;;;;;60.72;21.02;;;;;;;;;;4988979;28;20030;-76
2021/12/03 06:19:13;;;;;;;54.33;18.13;;;;;;;;;;4992799;28;20046;-78
2021/12/03 06:21:38;;;;;;;42.20;17.30;;;;;;;;;;4975433;28;20089;-72
2021/12/03 06:24:04;;;;;;;43.83;14.93;;;;;;;;;;4993542;28;20030;-75
2021/12/03 06:26:29;;;;;;;43.55;15.02;;;;;;;;;;4993418;28;20038;-76
2021/12/03 06:28:55;;;;;;;42.75;18.30;;;;;;;;;;4974827;28;20034;-74
2021/12/03 06:31:21;;;;;;;40.63;17.55;;;;;;;;;;4992538;28;20049;-73
2021/12/03 06:33:46;;;;;;;30.85;13.35;;;;;;;;;;4992682;28;20057;-75
2021/12/03 06:36:11;;;;;;;49.28;19.30;;;;;;;;;;4976188;28;20042;-76
2021/12/03 06:38:38;;;;;;;42.78;18.08;;;;;;;;;;4992836;28;20042;-77
2021/12/03 06:41:05;;;;;;;52.22;19.00;;;;;;;;;;4993534;28;20084;-74
2021/12/03 06:43:30;;;;;;;36.08;15.45;;;;;;;;;;4992675;28;20038;-72
2021/12/03 06:45:56;;;;;;;53.15;19.52;;;;;;;;;;4990132;28;20129;-75
2021/12/03 06:48:22;;;;;;;47.72;18.20;;;;;;;;;;4993677;28;20454;-74
2021/12/03 06:50:50;;;;;;;30.88;13.18;;;;;;;;;;4975266;28;20471;-72
2021/12/03 06:53:17;;;;;;;36.10;15.60;;;;;;;;;;4992749;28;20031;-72
2021/12/03 06:55:48;;;;;;;35.42;16.10;;;;;;;;;;4992392;28;20041;-75
2021/12/03 06:58:16;;;;;;;38.53;15.98;;;;;;;;;;4993221;28;20043;-75
2021/12/03 07:00:42;;;;;;;47.47;20.98;;;;;;;;;;4975119;28;20053;-77
2021/12/03 07:03:08;;;;;;;40.13;16.13;;;;;;;;;;4993564;28;20038;-78
2021/12/03 07:05:34;;;;;;;37.38;15.20;;;;;;;;;;4992705;28;20030;-79
2021/12/03 07:07:59;;;;;;;37.28;15.43;;;;;;;;;;4991684;28;20080;-75
2021/12/03 07:10:25;;;;;;;59.67;21.02;;;;;;;;;;4970288;28;20130;-72
2021/12/03 07:12:50;;;;;;;49.95;19.58;;;;;;;;;;4971177;28;20468;-71
2021/12/03 07:15:17;;;;;;;51.83;16.77;;;;;;;;;;4973685;28;20058;-71
2021/12/03 07:17:42;;;;;;;50.80;18.23;;;;;;;;;;4972545;28;20030;-71
2021/12/03 07:20:09;;;;;;;56.25;19.98;;;;;;;;;;4973662;28;20387;-72
2021/12/03 07:22:35;;;;;;;52.22;18.17;;;;;;;;;;4973381;28;20042;-71
2021/12/03 07:25:01;;;;;;;45.75;15.50;;;;;;;;;;4971072;28;20393;-75
2021/12/03 07:27:26;;;;;;;60.28;19.50;;;;;;;;;;4972333;28;20485;-74
2021/12/03 07:29:52;;;;;;;47.38;16.33;;;;;;;;;;4971858;28;20034;-73
2021/12/03 07:32:19;;;;;;;51.22;16.88;;;;;;;;;;4972078;28;20126;-68
2021/12/03 07:34:45;;;;;;;40.92;14.77;;;;;;;;;;4987488;28;20031;-69
2021/12/03 07:37:11;;;;;;;44.83;16.42;;;;;;;;;;4971521;28;20037;-77
2021/12/03 07:39:37;;;;;;;30.20;12.88;;;;;;;;;;4973043;28;20373;-71
2021/12/03 07:42:04;;;;;;;44.63;15.85;;;;;;;;;;4987612;28;20070;-77
2021/12/03 07:44:30;;;;;;;59.97;18.10;;;;;;;;;;4972408;28;20039;-71
2021/12/03 07:46:55;;;;;;;43.38;14.15;;;;;;;;;;4970578;28;20428;-74
2021/12/03 07:49:22;;;;;;;47.42;16.23;;;;;;;;;;4972840;28;20062;-70
2021/12/03 07:51:48;;;;;;;45.38;15.93;;;;;;;;;;4971926;28;20038;-74
2021/12/03 07:54:13;;;;;;;55.03;17.65;;;;;;;;;;4971909;28;20441;-70
2021/12/03 07:56:39;;;;;;;29.52;13.00;;;;;;;;;;4972399;28;20440;-77
2021/12/03 07:59:05;;;;;;;45.47;16.67;;;;;;;;;;4972395;28;20431;-70
2021/12/03 08:01:31;;;;;;;32.88;13.80;;;;;;;;;;4972560;28;20034;-71
2021/12/03 08:03:56;;;;;;;31.27;12.32;;;;;;;;;;4971778;28;20027;-69
2021/12/03 08:06:22;;;;;;;37.08;14.02;;;;;;;;;;4972933;28;20379;-69
2021/12/03 08:08:47;;;;;;;39.85;14.75;;;;;;;;;;4971670;28;20057;-70
2021/12/03 08:11:13;;;;;;;33.33;13.27;;;;;;;;;;4971107;28;20492;-70
2021/12/03 08:13:38;;;;;;;29.65;12.63;;;;;;;;;;4972469;28;20088;-73
2021/12/03 08:16:04;;;;;;;31.90;13.32;;;;;;;;;;4971126;28;20121;-72
2021/12/03 08:18:30;;;;;;;43.00;15.82;;;;;;;;;;4970575;28;20035;-72
2021/12/03 08:20:56;;;;;;;37.92;15.52;;;;;;;;;;4969974;28;20027;-69
2021/12/03 08:23:21;;;;;;;23.67;10.60;;;;;;;;;;4972333;28;20092;-70
2021/12/03 08:25:47;;;;;;;35.72;14.13;;;;;;;;;;4971692;28;20096;-70
2021/12/03 08:28:12;;;;;;;27.55;9.82;;;;;;;;;;4970775;28;20109;-73
2021/12/03 08:30:38;;;;;;;34.80;13.00;;;;;;;;;;4972665;28;20033;-68
2021/12/03 08:33:04;;;;;;;45.63;14.55;;;;;;;;;;4970132;28;20130;-66
2021/12/03 08:35:30;;;;;;;23.48;10.32;;;;;;;;;;4971301;28;20443;-68
2021/12/03 08:37:56;;;;;;;21.80;11.13;;;;;;;;;;4970782;28;20034;-67
2021/12/03 08:40:23;;;;;;;27.50;11.35;;;;;;;;;;4972557;28;20130;-68
2021/12/03 08:42:50;;;;;;;26.05;10.55;;;;;;;;;;4970195;28;20034;-66
2021/12/03 08:45:17;;;;;;;21.50;8.75;;;;;;;;;;4970694;28;20049;-70
2021/12/03 08:47:46;;;;;;;30.63;10.20;;;;;;;;;;4969680;28;20066;-70
2021/12/03 08:50:17;;;;;;;18.90;7.18;;;;;;;;;;4972030;28;20117;-67
2021/12/03 08:55:10;;;;;;;12.65;6.18;;;;;;;;;;4971910;28;20071;-68
2021/12/03 08:57:36;;;;;;;20.83;8.48;;;;;;;;;;4971934;28;20122;-68
2021/12/03 09:00:16;;;;;;;23.33;7.80;;;;;;;;;;4972199;28;20238;-67
2021/12/03 09:02:43;;;;;;;18.55;7.30;;;;;;;;;;4973699;28;20061;-70
2021/12/03 09:05:09;;;;;;;18.95;5.78;;;;;;;;;;4973105;28;20468;-69
2021/12/03 09:07:36;;;;;;;16.38;5.95;;;;;;;;;;4973162;28;20042;-71
2021/12/03 09:10:04;;;;;;;17.02;5.57;;;;;;;;;;4979671;28;20082;-69
2021/12/03 09:12:29;;;;;;;16.83;6.70;;;;;;;;;;4995386;28;20040;-66
2021/12/03 09:14:58;;;;;;;20.77;6.60;;;;;;;;;;4993970;28;20038;-65
2021/12/03 09:17:43;;;;;;;16.70;6.25;;;;;;;;;;4975263;28;20100;-68
2021/12/03 09:22:54;;;;;;;12.50;4.35;;;;;;;;;;4995538;28;20043;-69
2021/12/03 09:25:32;;;;;;;15.63;4.30;;;;;;;;;;4976951;28;20442;-69
2021/12/03 09:27:59;;;;;;;9.43;3.20;;;;;;;;;;4990626;28;20042;-69
2021/12/03 09:30:25;;;;;;;10.40;3.83;;;;;;;;;;4994268;28;20038;-64
2021/12/03 09:32:56;;;;;;;9.63;3.80;;;;;;;;;;4993888;28;20037;-64
2021/12/03 09:35:23;;;;;;;10.15;4.18;;;;;;;;;;4995065;28;20061;-67
2021/12/03 09:37:49;;;;;;;17.23;4.70;;;;;;;;;;4992736;28;20038;-66
2021/12/03 09:40:20;;;;;;;10.95;3.22;;;;;;;;;;4993525;28;20042;-66
2021/12/03 09:42:47;;;;;;;16.65;5.20;;;;;;;;;;4994658;28;20036;-73
2021/12/03 09:45:13;;;;;;;17.95;4.68;;;;;;;;;;4994556;28;20065;-67
2021/12/03 09:47:38;;;;;;;14.82;5.38;;;;;;;;;;4993494;28;20361;-67
2021/12/03 09:50:08;;;;;;;11.20;4.43;;;;;;;;;;4960508;28;20266;-66
2021/12/03 09:52:46;;;;;;;16.23;4.37;;;;;;;;;;4994971;28;20034;-66
2021/12/03 09:55:14;;;;;;;13.40;4.65;;;;;;;;;;4976183;28;20200;-63
2021/12/03 09:57:50;;;;;;;9.82;3.55;;;;;;;;;;4994004;28;20084;-65
2021/12/03 10:00:26;;;;;;;12.75;3.85;;;;;;;;;;4995154;28;20057;-65
2021/12/03 10:16:49;;;;;;;10.52;3.05;;;;;;;;;;4974819;28;20031;-68
2021/12/03 10:38:08;;;;;;;9.10;3.35;;;;;;;;;;4993070;28;20041;-66
2021/12/03 10:43:24;;;;;;;14.65;4.78;;;;;;;;;;4992842;28;20207;-68
2021/12/03 10:48:41;;;;;;;9.75;3.47;;;;;;;;;;4978223;28;20084;-68
2021/12/03 10:51:28;;;;;;;10.65;3.90;;;;;;;;;;4956119;28;20040;-65
2021/12/03 10:53:58;;;;;;;7.45;2.90;;;;;;;;;;4991647;28;20044;-64
2021/12/03 11:35:11;;;;;;;11.43;3.42;;;;;;;;;;4991512;28;20026;-64
2021/12/03 11:44:09;;;;;;;8.38;3.53;;;;;;;;;;4991481;28;20058;-65
2021/12/03 11:47:19;;;;;;;9.45;3.25;;;;;;;;;;4988404;28;20121;-68
2021/12/03 14:03:28;;;;;;;7.63;2.50;;;;;;;;;;4962380;28;20515;-63
2021/12/03 14:41:18;;;;;;;5.38;2.13;;;;;;;;;;4913911;29;20043;-67
2021/12/03 14:43:53;;;;;;;6.28;2.40;;;;;;;;;;4967372;28;20039;-64
2021/12/03 14:47:02;;;;;;;6.47;2.85;;;;;;;;;;4989501;28;20045;-65
2021/12/03 15:05:48;;;;;;;4.03;2.00;;;;;;;;;;4983836;28;20410;-67
2021/12/03 15:08:19;;;;;;;4.03;2.13;;;;;;;;;;4983041;28;20507;-65
2021/12/03 15:26:07;;;;;;;5.55;2.63;;;;;;;;;;4992322;28;19917;-65
2021/12/03 15:34:07;;;;;;;6.78;2.80;;;;;;;;;;4976439;28;20498;-71
2021/12/03 15:51:51;;;;;;;7.40;3.25;;;;;;;;;;4992592;28;20096;-65
2021/12/03 16:08:42;;;;;;;6.88;3.50;;;;;;;;;;4984658;28;20414;-65
2021/12/03 16:11:23;;;;;;;8.13;4.15;;;;;;;;;;4988684;28;20050;-67
2021/12/03 16:22:07;;;;;;;12.25;4.57;;;;;;;;;;4990536;28;20041;-64
2021/12/03 16:53:54;;;;;;;14.75;6.55;;;;;;;;;;4991971;28;20395;-64
2021/12/03 16:56:26;;;;;;;16.52;7.45;;;;;;;;;;4990686;28;20495;-63
2021/12/03 16:58:52;;;;;;;8.73;4.93;;;;;;;;;;4972613;28;20031;-66
2021/12/03 17:01:28;;;;;;;10.70;5.88;;;;;;;;;;4990344;28;20464;-65
2021/12/03 17:04:01;;;;;;;18.83;8.80;;;;;;;;;;4991772;28;20045;-65
2021/12/03 17:30:43;;;;;;;12.10;5.30;;;;;;;;;;4993886;28;20038;-64
2021/12/03 17:57:05;;;;;;;18.13;8.52;;;;;;;;;;4994480;28;20100;-66
2021/12/03 17:59:39;;;;;;;14.35;7.10;;;;;;;;;;4993889;28;20038;-66
2021/12/03 18:02:15;;;;;;;11.32;5.28;;;;;;;;;;4993617;28;20038;-66
2021/12/03 18:10:06;;;;;;;14.05;7.28;;;;;;;;;;4993225;28;20034;-67
2021/12/03 18:50:34;;;;;;;;;;;;;;;;;;4993078;28;20463;-66
2021/12/03 18:55:39;;;;;;;16.42;7.10;;;;;;;;;;4992522;28;20064;-66
2021/12/03 18:58:06;;;;;;;13.50;6.72;;;;;;;;;;4990866;28;20038;-71
2021/12/03 19:00:42;;;;;;;14.70;7.68;;;;;;;;;;4992527;28;20538;-65
2021/12/03 19:08:55;;;;;;;16.90;8.40;;;;;;;;;;4963597;28;20042;-67
2021/12/03 19:11:30;;;;;;;13.57;8.20;;;;;;;;;;4992286;28;20070;-66
2021/12/03 19:13:55;;;;;;;12.48;7.63;;;;;;;;;;4977116;28;20034;-66
2021/12/03 19:16:24;;;;;;;15.23;8.05;;;;;;;;;;4991835;28;20037;-66
2021/12/03 19:18:52;;;;;;;9.77;5.82;;;;;;;;;;4991512;28;20069;-64
2021/12/03 19:21:23;;;;;;;13.65;7.85;;;;;;;;;;4974334;28;20030;-67
2021/12/03 19:23:51;;;;;;;12.48;6.53;;;;;;;;;;4993232;28;20048;-66
2021/12/03 19:26:19;;;;;;;15.77;7.90;;;;;;;;;;4974589;28;20037;-67
2021/12/03 19:28:44;;;;;;;9.02;5.28;;;;;;;;;;4992872;28;20035;-65
2021/12/03 19:31:10;;;;;;;14.27;7.60;;;;;;;;;;4989400;28;20079;-67
2021/12/03 19:33:36;;;;;;;18.85;7.88;;;;;;;;;;4975215;28;20037;-65
2021/12/03 19:36:05;;;;;;;11.63;6.47;;;;;;;;;;4991941;28;20022;-66
2021/12/03 19:38:32;;;;;;;13.18;6.82;;;;;;;;;;4992181;28;20031;-66
2021/12/03 19:41:02;;;;;;;16.40;7.55;;;;;;;;;;4992473;28;20133;-67
2021/12/03 19:43:33;;;;;;;13.55;7.20;;;;;;;;;;4990575;28;20117;-70
2021/12/03 19:46:02;;;;;;;13.45;7.28;;;;;;;;;;4990786;28;20049;-67
2021/12/03 19:48:41;;;;;;;12.25;6.63;;;;;;;;;;4989958;28;20026;-67
2021/12/03 19:51:15;;;;;;;12.63;7.65;;;;;;;;;;4975285;28;20038;-71
2021/12/03 19:54:05;;;;;;;11.50;6.35;;;;;;;;;;4974798;28;20045;-67
2021/12/03 19:56:31;;;;;;;7.72;4.35;;;;;;;;;;4988464;28;20038;-68
2021/12/03 19:58:58;;;;;;;10.55;6.38;;;;;;;;;;4992273;28;20038;-67
2021/12/03 20:01:24;;;;;;;10.90;6.07;;;;;;;;;;4988748;28;20040;-67
2021/12/03 20:03:53;;;;;;;10.77;5.72;;;;;;;;;;4974908;28;20522;-67
2021/12/03 20:06:19;;;;;;;11.88;6.63;;;;;;;;;;4992330;28;20026;-68
2021/12/03 20:08:44;;;;;;;13.00;5.82;;;;;;;;;;4959762;28;20041;-67
2021/12/03 20:11:10;;;;;;;10.60;5.47;;;;;;;;;;4970718;28;20051;-71
2021/12/03 20:13:38;;;;;;;11.65;5.82;;;;;;;;;;4972624;28;20431;-68
2021/12/03 20:16:40;;;;;;;10.38;5.70;;;;;;;;;;4971050;28;20038;-68
2021/12/03 20:19:04;;;;;;;10.38;4.93;;;;;;;;;;4970813;28;20047;-68
2021/12/03 20:21:30;;;;;;;10.02;5.07;;;;;;;;;;4971849;28;20651;-68
2021/12/03 20:29:15;;;;;;;6.68;3.83;;;;;;;;;;4972520;28;20046;-68
2021/12/03 20:31:44;;;;;;;7.80;4.13;;;;;;;;;;4971820;28;20101;-67
2021/12/03 20:34:30;;;;;;;7.97;4.72;;;;;;;;;;4971010;28;20526;-69
2021/12/03 20:37:05;;;;;;;5.30;3.08;;;;;;;;;;4972660;28;20031;-67
2021/12/03 20:39:35;;;;;;;11.13;4.68;;;;;;;;;;4970550;28;20639;-66
2021/12/03 20:43:07;;;;;;;8.00;4.47;;;;;;;;;;4971137;28;20564;-67
2021/12/03 20:45:29;;;;;;;9.57;5.32;;;;;;;;;;4971395;28;20407;-66
2021/12/03 21:09:10;;;;;;;9.25;4.88;;;;;;;;;;4976444;28;20411;-65
2021/12/03 21:11:41;;;;;;;8.02;5.22;;;;;;;;;;4992709;28;20535;-65
2021/12/03 21:14:09;;;;;;;;;;;;;;;;;;4979642;28;20077;-65
2021/12/03 21:22:13;;;;;;;8.65;4.38;;;;;;;;;;4994393;28;20073;-65
2021/12/03 21:24:41;;;;;;;13.75;5.00;;;;;;;;;;4995131;28;20036;-64
2021/12/03 21:27:19;;;;;;;7.00;3.95;;;;;;;;;;4995349;28;20088;-65
2021/12/03 21:30:00;;;;;;;7.32;4.25;;;;;;;;;;4994823;28;20027;-65
2021/12/03 21:32:47;;;;;;;8.32;4.57;;;;;;;;;;4974782;28;20038;-65
2021/12/03 21:43:35;;;;;;;6.28;3.63;;;;;;;;;;4973674;28;20479;-64
2021/12/03 21:46:00;;;;;;;5.97;3.85;;;;;;;;;;4993982;28;20073;-65
2021/12/03 21:48:26;;;;;;;14.13;4.10;;;;;;;;;;4974711;28;20360;-65
2021/12/03 21:50:51;;;;;;;7.57;4.75;;;;;;;;;;4991375;28;20030;-69
2021/12/03 21:53:17;;;;;;;8.60;4.78;;;;;;;;;;4985311;28;20051;-69
2021/12/03 21:55:46;;;;;;;11.75;5.75;;;;;;;;;;4986207;28;20085;-65
2021/12/03 21:58:12;;;;;;;5.93;3.28;;;;;;;;;;4993072;28;20062;-66
2021/12/03 22:00:37;;;;;;;10.43;5.55;;;;;;;;;;4989388;28;20072;-65
2021/12/03 22:03:03;;;;;;;8.55;5.28;;;;;;;;;;4976295;28;20093;-68
2021/12/03 22:05:29;;;;;;;10.32;5.95;;;;;;;;;;4992721;28;20459;-65
2021/12/03 22:07:54;;;;;;;10.25;4.90;;;;;;;;;;4992531;28;20035;-65
2021/12/03 22:10:20;;;;;;;8.75;5.40;;;;;;;;;;4974851;28;20052;-66
2021/12/03 22:12:46;;;;;;;6.90;4.03;;;;;;;;;;4975569;28;20037;-65
2021/12/03 22:15:12;;;;;;;6.28;3.78;;;;;;;;;;4993471;28;20034;-64
2021/12/03 22:17:38;;;;;;;10.38;4.95;;;;;;;;;;4975136;28;20037;-64
2021/12/03 22:20:05;;;;;;;8.52;4.55;;;;;;;;;;4992350;28;20042;-64
2021/12/03 22:22:31;;;;;;;7.10;4.22;;;;;;;;;;4991980;28;20030;-65
2021/12/03 22:24:57;;;;;;;9.93;5.15;;;;;;;;;;4991699;28;20034;-64
2021/12/03 22:27:23;;;;;;;8.50;4.93;;;;;;;;;;4989732;28;20038;-65
2021/12/03 22:29:49;;;;;;;8.63;5.03;;;;;;;;;;4993286;28;20124;-65
2021/12/03 22:32:14;;;;;;;8.55;4.75;;;;;;;;;;4991742;28;20112;-64
2021/12/03 22:34:40;;;;;;;10.23;5.05;;;;;;;;;;4992932;28;20435;-64
2021/12/03 22:37:05;;;;;;;6.60;3.85;;;;;;;;;;4991611;28;20037;-64
2021/12/03 22:39:31;;;;;;;8.32;4.18;;;;;;;;;;4992014;28;20037;-68
2021/12/03 22:41:57;;;;;;;8.60;5.00;;;;;;;;;;4992997;28;20457;-64
2021/12/03 22:44:23;;;;;;;7.03;4.63;;;;;;;;;;4989791;28;20484;-64
2021/12/03 22:47:36;;;;;;;7.63;4.70;;;;;;;;;;4991944;28;20065;-64
2021/12/03 22:52:09;;;;;;;7.18;4.63;;;;;;;;;;4994090;28;20360;-63
2021/12/03 22:54:43;;;;;;;9.95;5.63;;;;;;;;;;4992828;28;20038;-64